Terminal Aerodrome Forecast
Issued by NWS

Home | Current Version | Previous Version | Text Only | Print | Product List | Glossary On
Versions: 1 2 3 4 5 6 7 8 9 10 11 12 13 14
000
FTUS46 KLOX 180010 CCA
TAFWJF
TAF COR
KWJF 180010Z 1800/1824 06006KT P6SM BKN200
     FM180500 VRB03KT P6SM OVC200
     FM181700 21014G20KT P6SM BKN120
     FM182000 22020G28KT P6SM BKN060 BKN100=

USA.gov is the U.S. government's official web portal to all federal, state and local government web resources and services.